createdAt,value
2022-12-23T00:01:06.783Z,17.83
2022-12-23T00:03:33.503Z,18.58
2022-12-23T00:06:00.313Z,18.65
2022-12-23T00:08:27.211Z,19.35
2022-12-23T00:10:54.843Z,20.13
2022-12-23T00:13:40.025Z,19.58
2022-12-23T00:16:08.650Z,19.73
2022-12-23T00:18:35.440Z,19.60
2022-12-23T00:21:08.825Z,20.67
2022-12-23T00:23:37.920Z,20.05
2022-12-23T00:26:04.795Z,19.98
2022-12-23T00:28:31.308Z,20.60
2022-12-23T00:31:02.779Z,20.63
2022-12-23T00:33:31.783Z,22.60
2022-12-23T00:35:58.491Z,23.08
2022-12-23T00:38:44.387Z,21.33
2022-12-23T00:41:31.172Z,23.38
2022-12-23T00:43:57.594Z,22.40
2022-12-23T00:46:24.055Z,22.77
2022-12-23T00:49:09.186Z,22.30
2022-12-23T00:51:35.659Z,21.27
2022-12-23T00:54:02.389Z,20.83
2022-12-23T00:56:28.838Z,21.50
2022-12-23T00:58:55.449Z,20.88
2022-12-23T01:01:40.684Z,19.98
2022-12-23T01:04:29.586Z,20.55
2022-12-23T01:06:55.955Z,19.52
2022-12-23T01:09:22.350Z,20.42
2022-12-23T01:11:48.733Z,18.95
2022-12-23T01:14:15.511Z,20.42
2022-12-23T01:16:41.989Z,20.80
2022-12-23T01:19:08.401Z,21.25
2022-12-23T01:21:35.055Z,21.42
2022-12-23T01:24:01.695Z,20.20
2022-12-23T01:26:28.415Z,20.05
2022-12-23T01:28:56.280Z,20.13
2022-12-23T01:31:23.852Z,19.98
2022-12-23T01:33:50.670Z,18.27
2022-12-23T01:36:17.105Z,19.60
2022-12-23T01:38:44.009Z,21.08
2022-12-23T01:41:49.873Z,21.58
2022-12-23T01:44:55.245Z,21.08
2022-12-23T01:47:38.464Z,22.35
2022-12-23T01:50:25.114Z,20.95
2022-12-23T01:53:00.530Z,20.98
2022-12-23T01:55:33.681Z,23.40
2022-12-23T01:58:05.688Z,22.02
2022-12-23T02:00:50.769Z,24.27
2022-12-23T02:03:35.591Z,26.20
2022-12-23T02:06:22.571Z,26.30
2022-12-23T02:09:09.209Z,28.10
2022-12-23T02:12:11.925Z,28.17
2022-12-23T02:15:30.679Z,29.60
2022-12-23T02:18:18.022Z,29.50
2022-12-23T02:20:50.606Z,30.42
2022-12-23T02:23:26.369Z,30.85
2022-12-23T02:26:20.034Z,29.10
2022-12-23T02:29:23.520Z,29.67
2022-12-23T02:32:16.163Z,31.10
2022-12-23T02:35:24.951Z,30.95
2022-12-23T02:38:09.362Z,29.25
2022-12-23T02:40:35.616Z,30.10
2022-12-23T02:43:15.649Z,29.90
2022-12-23T02:45:48.106Z,29.20
2022-12-23T02:50:44.803Z,27.27
2022-12-23T02:53:16.635Z,26.08
2022-12-23T02:55:43.419Z,24.38
2022-12-23T02:58:12.076Z,23.38
2022-12-23T03:00:40.075Z,22.90
2022-12-23T03:03:06.547Z,21.52
2022-12-23T03:05:36.224Z,20.05
2022-12-23T03:08:05.496Z,19.90
2022-12-23T03:10:56.704Z,18.35
2022-12-23T03:13:42.017Z,18.88
2022-12-23T03:16:24.867Z,18.58
2022-12-23T03:19:03.202Z,17.30
2022-12-23T03:21:46.825Z,16.80
2022-12-23T03:24:31.427Z,16.90
2022-12-23T03:27:01.739Z,15.75
2022-12-23T03:29:50.470Z,15.05
2022-12-23T03:32:17.512Z,14.95
2022-12-23T03:34:47.620Z,13.52
2022-12-23T03:37:16.461Z,14.18
2022-12-23T03:39:49.932Z,13.73
2022-12-23T03:42:23.918Z,13.38
2022-12-23T03:45:19.191Z,13.82
2022-12-23T03:47:45.304Z,13.48
2022-12-23T03:50:13.524Z,13.02
2022-12-23T03:52:44.156Z,12.80
2022-12-23T03:55:16.301Z,13.10
2022-12-23T03:57:51.734Z,12.82
2022-12-23T04:00:18.161Z,11.80
2022-12-23T04:03:43.347Z,12.15
2022-12-23T04:06:12.011Z,11.02
2022-12-23T04:08:39.150Z,11.20
2022-12-23T04:11:05.989Z,12.20
2022-12-23T04:13:32.439Z,11.70
2022-12-23T04:15:59.926Z,10.82
2022-12-23T04:18:26.856Z,10.45
2022-12-23T04:20:53.276Z,11.55
2022-12-23T04:23:19.622Z,11.30
2022-12-23T04:25:46.000Z,10.95
2022-12-23T04:28:12.412Z,11.45
2022-12-23T04:30:38.839Z,11.02
2022-12-23T04:33:05.206Z,12.25
2022-12-23T04:35:31.591Z,12.02
2022-12-23T04:37:58.003Z,11.95
2022-12-23T04:40:24.414Z,11.82
2022-12-23T04:42:50.988Z,12.85
2022-12-23T04:45:17.386Z,12.45
2022-12-23T04:47:43.822Z,10.88
2022-12-23T04:50:14.405Z,11.30
2022-12-23T04:52:41.353Z,11.02
2022-12-23T04:55:07.992Z,10.45
2022-12-23T04:57:34.510Z,10.27
2022-12-23T05:00:01.051Z,9.57
2022-12-23T05:02:27.779Z,9.13
2022-12-23T05:04:54.215Z,9.65
2022-12-23T05:07:20.640Z,9.60
2022-12-23T05:09:47.015Z,9.13
2022-12-23T05:12:13.442Z,9.15
2022-12-23T05:14:39.862Z,9.20
2022-12-23T05:17:07.867Z,8.90
2022-12-23T05:19:34.567Z,9.10
2022-12-23T05:22:01.003Z,5.95
2022-12-23T05:24:27.402Z,5.00
2022-12-23T05:26:59.670Z,4.30
2022-12-23T05:29:26.937Z,2.90
2022-12-23T05:31:53.398Z,3.17
2022-12-23T05:34:19.873Z,2.55
2022-12-23T05:36:46.286Z,2.20
2022-12-23T05:39:12.700Z,2.58
2022-12-23T05:41:39.120Z,2.25
2022-12-23T05:44:05.642Z,2.30
2022-12-23T05:46:32.132Z,2.40
2022-12-23T05:48:58.732Z,2.70
2022-12-23T05:51:25.132Z,2.30
2022-12-23T05:53:51.562Z,2.33
2022-12-23T05:56:17.941Z,3.30
2022-12-23T05:58:44.389Z,3.40
2022-12-23T06:01:10.883Z,3.55
2022-12-23T06:03:37.517Z,4.05
2022-12-23T06:06:04.135Z,4.47
2022-12-23T06:08:30.505Z,5.60
2022-12-23T06:10:56.907Z,6.03
2022-12-23T06:13:23.384Z,4.72
2022-12-23T06:15:49.816Z,5.57
2022-12-23T06:18:16.257Z,5.25
2022-12-23T06:20:46.356Z,5.72
2022-12-23T06:23:12.756Z,6.03
2022-12-23T06:25:39.204Z,6.18
2022-12-23T06:28:07.528Z,7.10
2022-12-23T06:30:34.024Z,7.25
2022-12-23T06:33:00.415Z,7.32
2022-12-23T06:35:26.787Z,9.27
2022-12-23T06:37:53.458Z,9.95
2022-12-23T06:40:19.830Z,9.88
2022-12-23T06:42:46.230Z,10.05
2022-12-23T06:45:13.265Z,11.98
2022-12-23T06:47:39.696Z,12.05
2022-12-23T06:50:06.658Z,15.95
2022-12-23T06:52:33.007Z,13.77
2022-12-23T06:54:59.358Z,14.23
2022-12-23T06:57:25.769Z,14.63
2022-12-23T06:59:52.179Z,14.95
2022-12-23T07:02:18.814Z,15.07
2022-12-23T07:04:45.604Z,16.40
2022-12-23T07:07:12.195Z,16.52
2022-12-23T07:09:38.956Z,17.88
2022-12-23T07:12:05.659Z,18.75
2022-12-23T07:14:32.038Z,19.13
2022-12-23T07:16:58.557Z,21.35
2022-12-23T07:19:25.347Z,21.55
2022-12-23T07:21:51.812Z,20.83
2022-12-23T07:24:18.172Z,22.73
2022-12-23T07:26:44.544Z,21.70
2022-12-23T07:29:10.977Z,22.92
2022-12-23T07:31:40.907Z,22.33
2022-12-23T07:34:07.892Z,23.65
2022-12-23T07:36:34.328Z,23.67
2022-12-23T07:39:00.775Z,22.13
2022-12-23T07:41:27.130Z,22.38
2022-12-23T07:43:53.524Z,21.85
2022-12-23T07:46:20.000Z,24.95
2022-12-23T07:48:46.513Z,22.35
2022-12-23T07:51:13.232Z,24.88
2022-12-23T07:53:39.878Z,21.88
2022-12-23T07:56:06.556Z,23.33
2022-12-23T07:58:32.916Z,22.05
2022-12-23T08:01:01.404Z,21.48
2022-12-23T08:03:28.035Z,20.33
2022-12-23T08:06:05.980Z,21.88
2022-12-23T08:08:33.168Z,19.67
2022-12-23T08:11:01.076Z,21.42
2022-12-23T08:13:27.765Z,20.52
2022-12-23T08:15:58.150Z,21.27
2022-12-23T08:18:25.592Z,18.50
2022-12-23T08:21:00.260Z,17.60
2022-12-23T08:23:27.994Z,16.52
2022-12-23T08:26:06.337Z,15.98
2022-12-23T08:28:33.856Z,14.07
2022-12-23T08:31:09.304Z,14.02
2022-12-23T08:33:36.790Z,13.32
2022-12-23T08:36:03.480Z,14.10
2022-12-23T08:38:29.933Z,14.77
2022-12-23T08:40:56.667Z,12.90
2022-12-23T08:43:23.111Z,14.20
2022-12-23T08:45:49.588Z,14.57
2022-12-23T08:48:16.377Z,14.48
2022-12-23T08:50:45.156Z,16.08
2022-12-23T08:53:11.971Z,14.95
2022-12-23T08:55:39.130Z,14.30
2022-12-23T08:58:05.696Z,14.75
2022-12-23T09:00:32.141Z,14.43
2022-12-23T09:02:58.621Z,14.73
2022-12-23T09:05:25.155Z,14.27
2022-12-23T09:07:51.592Z,14.25
2022-12-23T09:10:18.010Z,15.15
2022-12-23T09:12:44.383Z,15.70
2022-12-23T09:15:11.108Z,15.70
2022-12-23T09:17:37.513Z,17.58
2022-12-23T09:20:04.728Z,14.40
2022-12-23T09:22:32.836Z,14.35
2022-12-23T09:25:04.742Z,15.20
2022-12-23T09:29:58.068Z,14.70
2022-12-23T09:32:24.513Z,15.35
2022-12-23T09:34:50.991Z,15.48
2022-12-23T09:37:17.389Z,16.42
2022-12-23T09:39:43.823Z,15.48
2022-12-23T09:42:25.437Z,17.55
2022-12-23T09:45:11.221Z,19.30
2022-12-23T09:47:38.294Z,18.48
2022-12-23T09:50:19.317Z,16.63
2022-12-23T09:53:04.948Z,18.00
2022-12-23T09:55:40.135Z,17.25
2022-12-23T09:58:29.155Z,18.77
2022-12-23T10:01:22.745Z,19.42
2022-12-23T10:04:21.774Z,20.05
2022-12-23T10:07:19.663Z,21.52
2022-12-23T10:09:49.669Z,21.42
2022-12-23T10:12:31.647Z,19.65
2022-12-23T10:15:02.789Z,22.02
2022-12-23T10:17:35.389Z,21.70
2022-12-23T10:20:05.091Z,21.08
2022-12-23T10:22:41.269Z,20.38
2022-12-23T10:25:15.333Z,20.40
2022-12-23T10:27:43.082Z,20.55
2022-12-23T10:30:51.377Z,18.60
2022-12-23T10:33:40.950Z,17.88
2022-12-23T10:36:14.437Z,18.05
2022-12-23T10:38:53.524Z,17.23
2022-12-23T10:41:26.004Z,19.33
2022-12-23T10:46:53.648Z,19.77
2022-12-23T10:49:43.150Z,18.48
2022-12-23T10:52:21.504Z,17.70
2022-12-23T10:54:48.408Z,18.42
2022-12-23T10:57:16.909Z,19.70
2022-12-23T10:59:43.555Z,18.00
2022-12-23T11:02:13.149Z,16.45
2022-12-23T11:04:47.808Z,17.88
2022-12-23T11:07:43.927Z,15.90
2022-12-23T11:10:17.648Z,16.45
2022-12-23T11:12:50.447Z,16.80
2022-12-23T11:15:32.509Z,18.40
2022-12-23T11:18:12.213Z,18.05
2022-12-23T11:20:40.656Z,19.60
2022-12-23T11:23:25.197Z,18.17
2022-12-23T11:26:00.841Z,19.65
2022-12-23T11:28:27.795Z,19.85
2022-12-23T11:30:59.264Z,18.20
2022-12-23T11:33:30.949Z,19.05
2022-12-23T11:36:24.546Z,17.80
2022-12-23T11:38:53.964Z,17.48
2022-12-23T11:41:27.209Z,18.55
2022-12-23T11:44:00.465Z,18.50
2022-12-23T11:46:29.860Z,18.08
2022-12-23T11:49:16.617Z,17.65
2022-12-23T11:51:44.985Z,17.02
2022-12-23T11:54:19.757Z,17.75
2022-12-23T11:56:49.825Z,18.30
2022-12-23T11:59:37.134Z,16.33
2022-12-23T12:02:10.736Z,17.50
2022-12-23T12:04:37.488Z,17.40
2022-12-23T12:07:04.937Z,17.38
2022-12-23T12:09:32.361Z,16.42
2022-12-23T12:12:07.504Z,17.20
2022-12-23T12:14:40.740Z,16.23
2022-12-23T12:17:29.558Z,16.35
2022-12-23T12:20:01.840Z,16.67
2022-12-23T12:22:51.532Z,17.38
2022-12-23T12:25:21.753Z,15.88
2022-12-23T12:28:00.541Z,15.65
2022-12-23T12:30:33.005Z,17.45
2022-12-23T12:35:35.726Z,15.95
2022-12-23T12:38:13.402Z,16.67
2022-12-23T12:40:45.900Z,15.93
2022-12-23T12:46:11.335Z,16.58
2022-12-23T12:49:14.624Z,16.83
2022-12-23T12:51:54.259Z,16.45
2022-12-23T12:54:42.472Z,17.65
2022-12-23T12:57:14.291Z,18.13
2022-12-23T12:59:41.421Z,18.48
2022-12-23T13:02:20.031Z,18.35
2022-12-23T13:05:14.401Z,18.98
2022-12-23T13:08:18.330Z,19.10
2022-12-23T13:10:51.935Z,19.65
2022-12-23T13:13:37.668Z,19.48
2022-12-23T13:16:10.704Z,19.70
2022-12-23T13:18:54.754Z,18.38
2022-12-23T13:21:29.231Z,18.80
2022-12-23T13:24:23.684Z,18.80
2022-12-23T13:27:16.984Z,19.20
2022-12-23T13:29:59.058Z,18.75
2022-12-23T13:32:31.040Z,17.48
2022-12-23T13:35:38.374Z,18.52
2022-12-23T13:38:33.971Z,18.27
2022-12-23T13:41:07.500Z,17.95
2022-12-23T13:43:51.403Z,26.13
2022-12-23T13:46:25.321Z,22.75
2022-12-23T13:49:00.237Z,22.13
2022-12-23T13:51:37.189Z,22.45
2022-12-23T13:54:15.824Z,21.80
2022-12-23T13:56:45.087Z,23.20
2022-12-23T13:59:13.086Z,22.60
2022-12-23T14:01:46.901Z,23.63
2022-12-23T14:04:34.813Z,23.50
2022-12-23T14:07:04.063Z,22.80
2022-12-23T14:09:36.153Z,22.88
2022-12-23T14:12:12.535Z,21.85
2022-12-23T14:14:45.326Z,22.38
2022-12-23T14:17:29.585Z,21.00
2022-12-23T14:20:03.742Z,22.23
2022-12-23T14:23:00.540Z,22.08
2022-12-23T14:25:51.742Z,21.15
2022-12-23T14:28:36.943Z,20.00
2022-12-23T14:31:04.865Z,20.20
2022-12-23T14:33:34.027Z,20.10
2022-12-23T14:36:26.094Z,20.42
2022-12-23T14:39:11.302Z,19.83
2022-12-23T14:41:39.410Z,20.65
2022-12-23T14:44:39.220Z,21.98
2022-12-23T14:47:40.612Z,19.63
2022-12-23T14:50:42.014Z,20.58
2022-12-23T14:53:24.111Z,19.02
2022-12-23T14:55:53.436Z,19.38
2022-12-23T14:58:46.040Z,20.25
2022-12-23T15:01:16.428Z,19.80
2022-12-23T15:03:48.905Z,20.13
2022-12-23T15:06:18.529Z,18.88
2022-12-23T15:08:46.152Z,18.27
2022-12-23T15:11:22.200Z,18.92
2022-12-23T15:13:50.574Z,18.15
2022-12-23T15:16:17.727Z,18.77
2022-12-23T15:18:58.800Z,19.02
2022-12-23T15:21:33.663Z,18.88
2022-12-23T15:24:00.587Z,20.08
2022-12-23T15:26:30.103Z,17.63
2022-12-23T15:28:57.798Z,19.30
2022-12-23T15:31:39.349Z,17.90
2022-12-23T15:34:17.113Z,18.20
2022-12-23T15:36:44.348Z,17.85
2022-12-23T15:39:18.346Z,18.77
2022-12-23T15:41:46.258Z,19.25
2022-12-23T15:44:15.662Z,19.15
2022-12-23T15:46:42.360Z,20.17
2022-12-23T15:49:10.933Z,19.27
2022-12-23T15:52:06.400Z,21.02
2022-12-23T15:54:31.128Z,22.45
2022-12-23T15:56:59.256Z,21.45
2022-12-23T15:59:29.397Z,27.23
2022-12-23T16:01:56.050Z,27.52
2022-12-23T16:04:26.457Z,27.88
2022-12-23T16:06:53.668Z,24.17
2022-12-23T16:09:19.973Z,23.83
2022-12-23T16:12:00.925Z,20.42
2022-12-23T16:14:27.692Z,17.90
2022-12-23T16:16:58.477Z,20.27
2022-12-23T16:19:43.176Z,17.42
2022-12-23T16:22:21.076Z,17.20
2022-12-23T16:24:50.818Z,15.82
2022-12-23T16:27:19.881Z,15.15
2022-12-23T16:29:47.418Z,14.98
2022-12-23T16:32:16.833Z,21.77
2022-12-23T16:34:46.220Z,18.20
2022-12-23T16:37:12.659Z,23.25
2022-12-23T16:39:39.841Z,22.88
2022-12-23T16:42:06.245Z,23.90
2022-12-23T16:44:32.735Z,21.75
2022-12-23T16:47:04.945Z,19.10
2022-12-23T16:49:34.342Z,21.98
2022-12-23T16:52:00.990Z,20.02
2022-12-23T16:54:27.366Z,20.85
2022-12-23T16:56:53.817Z,20.83
2022-12-23T16:59:20.969Z,19.85
2022-12-23T17:01:48.607Z,19.48
2022-12-23T17:04:15.106Z,19.73
2022-12-23T17:06:41.871Z,19.88
2022-12-23T17:09:09.447Z,19.38
2022-12-23T17:11:37.177Z,21.20
2022-12-23T17:14:06.889Z,19.58
2022-12-23T17:16:36.958Z,19.30
2022-12-23T17:19:05.355Z,21.17
2022-12-23T17:21:33.885Z,20.08
2022-12-23T17:24:06.675Z,20.27
2022-12-23T17:26:33.228Z,21.20
2022-12-23T17:28:59.665Z,20.20
2022-12-23T17:31:27.198Z,22.33
2022-12-23T17:33:54.402Z,19.05
2022-12-23T17:36:21.457Z,20.55
2022-12-23T17:38:47.878Z,18.90
2022-12-23T17:41:31.139Z,19.30
2022-12-23T17:43:57.993Z,19.52
2022-12-23T17:46:24.935Z,20.10
2022-12-23T17:48:51.595Z,25.45
2022-12-23T17:51:20.768Z,28.13
2022-12-23T17:53:51.598Z,29.25
2022-12-23T17:56:21.930Z,35.33
2022-12-23T17:58:49.675Z,29.60
2022-12-23T18:01:19.809Z,43.03
2022-12-23T18:03:46.333Z,36.40
2022-12-23T18:06:17.634Z,25.48
2022-12-23T18:08:44.048Z,53.30
2022-12-23T18:11:32.406Z,42.50
2022-12-23T18:13:58.824Z,26.05
2022-12-23T18:16:25.303Z,26.17
2022-12-23T18:18:52.890Z,24.65
2022-12-23T18:21:27.515Z,27.40
2022-12-23T18:23:55.345Z,28.13
2022-12-23T18:26:21.745Z,25.02
2022-12-23T18:28:48.168Z,26.60
2022-12-23T18:31:21.152Z,23.33
2022-12-23T18:33:47.906Z,22.75
2022-12-23T18:36:27.306Z,23.17
2022-12-23T18:38:54.194Z,23.10
2022-12-23T18:41:21.965Z,21.33
2022-12-23T18:43:48.567Z,23.77
2022-12-23T18:46:14.985Z,23.00
2022-12-23T18:48:41.539Z,25.67
2022-12-23T18:51:12.862Z,26.35
2022-12-23T18:53:39.432Z,25.70
2022-12-23T18:56:05.909Z,29.00
2022-12-23T18:58:32.344Z,27.15
2022-12-23T19:00:58.794Z,27.60
2022-12-23T19:03:27.667Z,24.85
2022-12-23T19:05:55.161Z,29.20
2022-12-23T19:08:26.737Z,26.25
2022-12-23T19:10:54.437Z,28.10
2022-12-23T19:13:20.811Z,27.15
2022-12-23T19:15:47.319Z,26.50
2022-12-23T19:18:15.673Z,26.58
2022-12-23T19:20:43.001Z,26.83
2022-12-23T19:23:10.376Z,27.45
2022-12-23T19:25:37.135Z,28.83
2022-12-23T19:28:03.538Z,27.80
2022-12-23T19:30:29.960Z,28.05
2022-12-23T19:32:56.363Z,28.33
2022-12-23T19:35:22.797Z,29.05
2022-12-23T19:37:49.169Z,29.45
2022-12-23T19:40:15.574Z,30.95
2022-12-23T19:42:41.994Z,32.20
2022-12-23T19:45:09.551Z,38.25
2022-12-23T19:47:36.373Z,34.50
2022-12-23T19:50:03.252Z,36.47
2022-12-23T19:52:29.774Z,32.60
2022-12-23T19:54:56.205Z,32.85
2022-12-23T19:57:22.597Z,31.35
2022-12-23T19:59:49.026Z,27.70
2022-12-23T20:02:16.287Z,31.25
2022-12-23T20:04:43.266Z,28.80
2022-12-23T20:07:10.002Z,27.45
2022-12-23T20:09:36.556Z,25.95
2022-12-23T20:12:03.479Z,28.08
2022-12-23T20:14:33.867Z,26.20
2022-12-23T20:17:00.752Z,27.30
2022-12-23T20:19:27.650Z,23.45
2022-12-23T20:21:54.065Z,24.08
2022-12-23T20:24:23.421Z,26.08
2022-12-23T20:26:49.849Z,22.50
2022-12-23T20:29:16.261Z,25.67
2022-12-23T20:31:43.049Z,28.98
2022-12-23T20:34:14.444Z,25.75
2022-12-23T20:36:40.927Z,29.88
2022-12-23T20:39:07.372Z,21.40
2022-12-23T20:41:33.809Z,26.90
2022-12-23T20:44:33.422Z,20.60
2022-12-23T20:46:46.935Z,21.23
2022-12-23T20:49:13.381Z,20.33
2022-12-23T20:51:39.791Z,22.45
2022-12-23T20:54:06.169Z,19.05
2022-12-23T20:56:32.547Z,21.40
2022-12-23T20:59:00.027Z,23.27
2022-12-23T21:01:38.007Z,20.08
2022-12-23T21:04:09.939Z,22.85
2022-12-23T21:06:36.431Z,22.48
2022-12-23T21:09:04.893Z,23.48
2022-12-23T21:11:33.794Z,22.30
2022-12-23T21:14:06.925Z,22.17
2022-12-23T21:16:34.777Z,20.30
2022-12-23T21:19:01.328Z,21.00
2022-12-23T21:21:28.200Z,22.38
2022-12-23T21:23:56.541Z,22.08
2022-12-23T21:26:27.674Z,21.58
2022-12-23T21:28:55.626Z,22.23
2022-12-23T21:31:24.097Z,23.35
2022-12-23T21:33:51.341Z,27.45
2022-12-23T21:36:20.579Z,27.33
2022-12-23T21:38:48.478Z,28.67
2022-12-23T21:41:18.193Z,27.92
2022-12-23T21:43:44.947Z,26.30
2022-12-23T21:46:17.432Z,24.27
2022-12-23T21:48:44.338Z,25.55
2022-12-23T21:51:15.497Z,25.83
2022-12-23T21:53:43.122Z,24.30
2022-12-23T21:56:12.462Z,24.30
2022-12-23T21:58:39.369Z,23.00
2022-12-23T22:01:14.154Z,22.38
2022-12-23T22:03:40.724Z,25.02
2022-12-23T22:06:10.625Z,25.50
2022-12-23T22:08:37.563Z,28.08
2022-12-23T22:11:08.526Z,25.20
2022-12-23T22:13:35.220Z,22.83
2022-12-23T22:16:01.863Z,22.40
2022-12-23T22:18:28.252Z,26.55
2022-12-23T22:20:54.618Z,29.38
2022-12-23T22:23:20.993Z,26.00
2022-12-23T22:25:54.169Z,25.73
2022-12-23T22:28:21.321Z,27.13
2022-12-23T22:30:48.095Z,28.30
2022-12-23T22:33:14.567Z,27.70
2022-12-23T22:35:40.973Z,28.15
2022-12-23T22:38:07.463Z,29.98
2022-12-23T22:40:33.924Z,29.63
2022-12-23T22:43:00.330Z,29.73
2022-12-23T22:45:26.753Z,29.05
2022-12-23T22:47:53.144Z,32.08
2022-12-23T22:50:19.525Z,31.05
2022-12-23T22:52:45.922Z,31.17
2022-12-23T22:55:12.284Z,32.60
2022-12-23T22:57:38.646Z,31.63
2022-12-23T23:00:11.911Z,31.50
2022-12-23T23:02:39.055Z,30.95
2022-12-23T23:05:10.862Z,31.63
2022-12-23T23:07:39.191Z,29.42
2022-12-23T23:10:06.161Z,28.48
2022-12-23T23:12:32.547Z,30.02
2022-12-23T23:14:58.920Z,29.15
2022-12-23T23:17:26.462Z,29.17
2022-12-23T23:19:53.454Z,28.48
2022-12-23T23:22:21.891Z,27.58
2022-12-23T23:24:48.559Z,26.33
2022-12-23T23:27:15.415Z,24.15
2022-12-23T23:29:42.187Z,24.40
2022-12-23T23:32:09.483Z,22.77
2022-12-23T23:34:36.964Z,21.83
2022-12-23T23:37:04.704Z,20.85
2022-12-23T23:39:31.131Z,19.83
2022-12-23T23:41:57.803Z,18.77
2022-12-23T23:44:24.232Z,18.20
2022-12-23T23:46:50.610Z,17.23
2022-12-23T23:49:17.047Z,16.60
2022-12-23T23:51:43.442Z,14.82
2022-12-23T23:54:09.961Z,13.55
2022-12-23T23:56:38.938Z,11.60
2022-12-23T23:59:06.208Z,11.13
